sensor_id;sensor_type;location;lat;lon;timestamp;temperature;humidity
7388;DHT22;3735;50.136;11.062;2024-02-14T00:00:10;0.50;99.90
7388;DHT22;3735;50.136;11.062;2024-02-14T00:02:41;0.50;99.90
7388;DHT22;3735;50.136;11.062;2024-02-14T00:05:10;0.60;99.90
7388;DHT22;3735;50.136;11.062;2024-02-14T00:07:38;0.60;99.90
7388;DHT22;3735;50.136;11.062;2024-02-14T00:10:07;0.60;99.90
7388;DHT22;3735;50.136;11.062;2024-02-14T00:12:34;0.60;99.90
7388;DHT22;3735;50.136;11.062;2024-02-14T00:15:01;0.60;99.90
7388;DHT22;3735;50.136;11.062;2024-02-14T00:17:29;0.50;99.90
7388;DHT22;3735;50.136;11.062;2024-02-14T00:19:55;0.50;99.90
7388;DHT22;3735;50.136;11.062;2024-02-14T00:22:21;0.50;99.90
7388;DHT22;3735;50.136;11.062;2024-02-14T00:24:47;0.40;99.90
7388;DHT22;3735;50.136;11.062;2024-02-14T00:27:13;0.40;99.90
7388;DHT22;3735;50.136;11.062;2024-02-14T00:29:40;0.40;99.90
7388;DHT22;3735;50.136;11.062;2024-02-14T00:32:06;0.40;99.90
7388;DHT22;3735;50.136;11.062;2024-02-14T00:34:32;0.50;99.90
7388;DHT22;3735;50.136;11.062;2024-02-14T00:36:58;0.60;99.90
7388;DHT22;3735;50.136;11.062;2024-02-14T00:39:24;0.60;99.90
7388;DHT22;3735;50.136;11.062;2024-02-14T00:41:50;0.60;99.90
7388;DHT22;3735;50.136;11.062;2024-02-14T00:44:18;0.60;99.90
7388;DHT22;3735;50.136;11.062;2024-02-14T00:46:45;0.70;99.90
7388;DHT22;3735;50.136;11.062;2024-02-14T00:49:11;0.70;99.90
7388;DHT22;3735;50.136;11.062;2024-02-14T00:51:38;0.80;99.90
7388;DHT22;3735;50.136;11.062;2024-02-14T00:54:05;0.80;99.90
7388;DHT22;3735;50.136;11.062;2024-02-14T00:56:32;0.90;99.90
7388;DHT22;3735;50.136;11.062;2024-02-14T00:58:58;0.90;99.90
7388;DHT22;3735;50.136;11.062;2024-02-14T01:01:23;0.90;99.90
7388;DHT22;3735;50.136;11.062;2024-02-14T01:03:51;1.00;99.90
7388;DHT22;3735;50.136;11.062;2024-02-14T01:06:16;1.00;99.90
7388;DHT22;3735;50.136;11.062;2024-02-14T01:08:43;1.00;99.90
7388;DHT22;3735;50.136;11.062;2024-02-14T01:11:10;1.10;99.90
7388;DHT22;3735;50.136;11.062;2024-02-14T01:13:36;1.10;99.90
7388;DHT22;3735;50.136;11.062;2024-02-14T01:16:02;1.10;99.90
7388;DHT22;3735;50.136;11.062;2024-02-14T01:18:30;1.10;99.90
7388;DHT22;3735;50.136;11.062;2024-02-14T01:20:56;1.20;99.90
7388;DHT22;3735;50.136;11.062;2024-02-14T01:23:24;1.20;99.90
7388;DHT22;3735;50.136;11.062;2024-02-14T01:25:50;1.20;99.90
7388;DHT22;3735;50.136;11.062;2024-02-14T01:28:16;1.20;99.90
7388;DHT22;3735;50.136;11.062;2024-02-14T01:30:43;1.20;99.90
7388;DHT22;3735;50.136;11.062;2024-02-14T01:33:09;1.30;99.90
7388;DHT22;3735;50.136;11.062;2024-02-14T01:35:34;1.30;99.90
7388;DHT22;3735;50.136;11.062;2024-02-14T01:38:04;1.30;99.90
7388;DHT22;3735;50.136;11.062;2024-02-14T01:40:31;1.30;99.90
7388;DHT22;3735;50.136;11.062;2024-02-14T01:42:57;1.30;99.90
7388;DHT22;3735;50.136;11.062;2024-02-14T01:45:23;1.20;99.90
7388;DHT22;3735;50.136;11.062;2024-02-14T01:47:49;1.20;99.90
7388;DHT22;3735;50.136;11.062;2024-02-14T01:50:16;1.10;99.90
7388;DHT22;3735;50.136;11.062;2024-02-14T01:52:44;1.00;99.90
7388;DHT22;3735;50.136;11.062;2024-02-14T01:55:12;1.00;99.90
7388;DHT22;3735;50.136;11.062;2024-02-14T01:57:39;1.00;99.90
7388;DHT22;3735;50.136;11.062;2024-02-14T02:00:06;0.90;99.90
7388;DHT22;3735;50.136;11.062;2024-02-14T02:02:35;0.90;99.90
7388;DHT22;3735;50.136;11.062;2024-02-14T02:05:05;0.90;99.90
7388;DHT22;3735;50.136;11.062;2024-02-14T02:07:32;0.80;99.90
7388;DHT22;3735;50.136;11.062;2024-02-14T02:09:58;0.80;99.90
7388;DHT22;3735;50.136;11.062;2024-02-14T02:12:24;0.80;99.90
7388;DHT22;3735;50.136;11.062;2024-02-14T02:14:55;0.70;99.90
7388;DHT22;3735;50.136;11.062;2024-02-14T02:17:21;0.70;99.90
7388;DHT22;3735;50.136;11.062;2024-02-14T02:19:47;0.70;99.90
7388;DHT22;3735;50.136;11.062;2024-02-14T02:22:13;0.70;99.90
7388;DHT22;3735;50.136;11.062;2024-02-14T02:24:38;0.70;99.90
7388;DHT22;3735;50.136;11.062;2024-02-14T02:27:04;0.70;99.90
7388;DHT22;3735;50.136;11.062;2024-02-14T02:29:30;0.70;99.90
7388;DHT22;3735;50.136;11.062;2024-02-14T02:31:58;0.70;99.90
7388;DHT22;3735;50.136;11.062;2024-02-14T02:34:24;0.80;99.90
7388;DHT22;3735;50.136;11.062;2024-02-14T02:36:50;0.90;99.90
7388;DHT22;3735;50.136;11.062;2024-02-14T02:39:16;0.90;99.90
7388;DHT22;3735;50.136;11.062;2024-02-14T02:41:42;0.90;99.90
7388;DHT22;3735;50.136;11.062;2024-02-14T02:44:12;0.90;99.90
7388;DHT22;3735;50.136;11.062;2024-02-14T02:46:38;1.00;99.90
7388;DHT22;3735;50.136;11.062;2024-02-14T02:49:04;1.00;99.90
7388;DHT22;3735;50.136;11.062;2024-02-14T02:51:30;1.00;99.90
7388;DHT22;3735;50.136;11.062;2024-02-14T02:53:55;1.10;99.90
7388;DHT22;3735;50.136;11.062;2024-02-14T02:56:21;1.10;99.90
7388;DHT22;3735;50.136;11.062;2024-02-14T02:58:47;1.20;99.90
7388;DHT22;3735;50.136;11.062;2024-02-14T03:01:14;1.20;99.90
7388;DHT22;3735;50.136;11.062;2024-02-14T03:03:40;1.20;99.90
7388;DHT22;3735;50.136;11.062;2024-02-14T03:06:06;1.30;99.90
7388;DHT22;3735;50.136;11.062;2024-02-14T03:08:33;1.30;99.90
7388;DHT22;3735;50.136;11.062;2024-02-14T03:11:06;1.40;99.90
7388;DHT22;3735;50.136;11.062;2024-02-14T03:13:32;1.40;99.90
7388;DHT22;3735;50.136;11.062;2024-02-14T03:15:59;1.50;99.90
7388;DHT22;3735;50.136;11.062;2024-02-14T03:18:25;1.50;99.90
7388;DHT22;3735;50.136;11.062;2024-02-14T03:20:51;1.60;99.90
7388;DHT22;3735;50.136;11.062;2024-02-14T03:23:19;1.60;99.90
7388;DHT22;3735;50.136;11.062;2024-02-14T03:25:45;1.60;99.90
7388;DHT22;3735;50.136;11.062;2024-02-14T03:28:11;1.70;99.90
7388;DHT22;3735;50.136;11.062;2024-02-14T03:30:38;1.70;99.90
7388;DHT22;3735;50.136;11.062;2024-02-14T03:33:07;1.80;99.90
7388;DHT22;3735;50.136;11.062;2024-02-14T03:35:35;1.90;99.90
7388;DHT22;3735;50.136;11.062;2024-02-14T03:38:01;1.90;99.90
7388;DHT22;3735;50.136;11.062;2024-02-14T03:40:28;2.00;99.90
7388;DHT22;3735;50.136;11.062;2024-02-14T03:42:56;2.00;99.90
7388;DHT22;3735;50.136;11.062;2024-02-14T03:45:22;2.00;99.90
7388;DHT22;3735;50.136;11.062;2024-02-14T03:47:48;2.10;99.90
7388;DHT22;3735;50.136;11.062;2024-02-14T03:50:14;2.10;99.90
7388;DHT22;3735;50.136;11.062;2024-02-14T03:52:41;2.20;99.90
7388;DHT22;3735;50.136;11.062;2024-02-14T03:55:10;2.20;99.90
7388;DHT22;3735;50.136;11.062;2024-02-14T03:57:39;2.20;99.90
7388;DHT22;3735;50.136;11.062;2024-02-14T04:00:06;2.30;99.90
7388;DHT22;3735;50.136;11.062;2024-02-14T04:02:35;2.30;99.90
7388;DHT22;3735;50.136;11.062;2024-02-14T04:05:01;2.30;99.90
7388;DHT22;3735;50.136;11.062;2024-02-14T04:07:32;2.30;99.90
7388;DHT22;3735;50.136;11.062;2024-02-14T04:10:00;2.30;99.90
7388;DHT22;3735;50.136;11.062;2024-02-14T04:12:25;2.30;99.90
7388;DHT22;3735;50.136;11.062;2024-02-14T04:14:51;2.40;99.90
7388;DHT22;3735;50.136;11.062;2024-02-14T04:17:17;2.40;99.90
7388;DHT22;3735;50.136;11.062;2024-02-14T04:19:43;2.40;99.90
7388;DHT22;3735;50.136;11.062;2024-02-14T04:22:08;2.40;99.90
7388;DHT22;3735;50.136;11.062;2024-02-14T04:24:34;2.40;99.90
7388;DHT22;3735;50.136;11.062;2024-02-14T04:27:00;2.40;99.90
7388;DHT22;3735;50.136;11.062;2024-02-14T04:29:29;2.40;99.90
7388;DHT22;3735;50.136;11.062;2024-02-14T04:31:56;2.40;99.90
7388;DHT22;3735;50.136;11.062;2024-02-14T04:34:23;2.40;99.90
7388;DHT22;3735;50.136;11.062;2024-02-14T04:36:49;2.40;99.90
7388;DHT22;3735;50.136;11.062;2024-02-14T04:39:14;2.40;99.90
7388;DHT22;3735;50.136;11.062;2024-02-14T04:41:40;2.40;99.90
7388;DHT22;3735;50.136;11.062;2024-02-14T04:44:07;2.50;99.90
7388;DHT22;3735;50.136;11.062;2024-02-14T04:46:33;2.50;99.90
7388;DHT22;3735;50.136;11.062;2024-02-14T04:49:00;2.50;99.90
7388;DHT22;3735;50.136;11.062;2024-02-14T04:51:30;2.60;99.90
7388;DHT22;3735;50.136;11.062;2024-02-14T04:53:56;2.60;99.90
7388;DHT22;3735;50.136;11.062;2024-02-14T04:56:27;2.60;99.90
7388;DHT22;3735;50.136;11.062;2024-02-14T04:58:53;2.70;99.90
7388;DHT22;3735;50.136;11.062;2024-02-14T05:01:22;2.70;99.90
7388;DHT22;3735;50.136;11.062;2024-02-14T05:03:48;2.70;99.90
7388;DHT22;3735;50.136;11.062;2024-02-14T05:06:15;2.80;99.90
7388;DHT22;3735;50.136;11.062;2024-02-14T05:08:41;2.80;99.90
7388;DHT22;3735;50.136;11.062;2024-02-14T05:11:07;2.80;99.90
7388;DHT22;3735;50.136;11.062;2024-02-14T05:13:32;2.90;99.90
7388;DHT22;3735;50.136;11.062;2024-02-14T05:16:01;2.90;99.90
7388;DHT22;3735;50.136;11.062;2024-02-14T05:18:28;2.90;99.90
7388;DHT22;3735;50.136;11.062;2024-02-14T05:20:53;2.90;99.90
7388;DHT22;3735;50.136;11.062;2024-02-14T05:23:19;2.90;99.90
7388;DHT22;3735;50.136;11.062;2024-02-14T05:25:45;3.00;99.90
7388;DHT22;3735;50.136;11.062;2024-02-14T05:28:11;3.00;99.90
7388;DHT22;3735;50.136;11.062;2024-02-14T05:30:39;3.00;99.90
7388;DHT22;3735;50.136;11.062;2024-02-14T05:33:07;3.10;99.90
7388;DHT22;3735;50.136;11.062;2024-02-14T05:35:33;3.10;99.90
7388;DHT22;3735;50.136;11.062;2024-02-14T05:37:59;3.10;99.90
7388;DHT22;3735;50.136;11.062;2024-02-14T05:40:25;3.10;99.90
7388;DHT22;3735;50.136;11.062;2024-02-14T05:42:51;3.10;99.90
7388;DHT22;3735;50.136;11.062;2024-02-14T05:45:17;3.10;99.90
7388;DHT22;3735;50.136;11.062;2024-02-14T05:47:43;3.10;99.90
7388;DHT22;3735;50.136;11.062;2024-02-14T05:50:09;3.10;99.90
7388;DHT22;3735;50.136;11.062;2024-02-14T05:52:37;3.20;99.90
7388;DHT22;3735;50.136;11.062;2024-02-14T05:55:04;3.20;99.90
7388;DHT22;3735;50.136;11.062;2024-02-14T05:57:30;3.20;99.90
7388;DHT22;3735;50.136;11.062;2024-02-14T05:59:56;3.10;99.90
7388;DHT22;3735;50.136;11.062;2024-02-14T06:02:22;3.10;99.90
7388;DHT22;3735;50.136;11.062;2024-02-14T06:04:48;3.10;99.90
7388;DHT22;3735;50.136;11.062;2024-02-14T06:07:14;3.20;99.90
7388;DHT22;3735;50.136;11.062;2024-02-14T06:09:39;3.20;99.90
7388;DHT22;3735;50.136;11.062;2024-02-14T06:12:06;3.20;99.90
7388;DHT22;3735;50.136;11.062;2024-02-14T06:14:32;3.20;99.90
7388;DHT22;3735;50.136;11.062;2024-02-14T06:16:59;3.20;99.90
7388;DHT22;3735;50.136;11.062;2024-02-14T06:19:28;3.30;99.90
7388;DHT22;3735;50.136;11.062;2024-02-14T06:21:54;3.30;99.90
7388;DHT22;3735;50.136;11.062;2024-02-14T06:24:20;3.30;99.90
7388;DHT22;3735;50.136;11.062;2024-02-14T06:26:46;3.30;99.90
7388;DHT22;3735;50.136;11.062;2024-02-14T06:29:11;3.40;99.90
7388;DHT22;3735;50.136;11.062;2024-02-14T06:31:37;3.40;99.90
7388;DHT22;3735;50.136;11.062;2024-02-14T06:34:03;3.50;99.90
7388;DHT22;3735;50.136;11.062;2024-02-14T06:36:30;3.50;99.90
7388;DHT22;3735;50.136;11.062;2024-02-14T06:38:56;3.50;99.90
7388;DHT22;3735;50.136;11.062;2024-02-14T06:41:22;3.60;99.90
7388;DHT22;3735;50.136;11.062;2024-02-14T06:43:48;3.70;99.90
7388;DHT22;3735;50.136;11.062;2024-02-14T06:46:14;3.80;99.90
7388;DHT22;3735;50.136;11.062;2024-02-14T06:48:40;3.80;99.90
7388;DHT22;3735;50.136;11.062;2024-02-14T06:51:07;3.90;99.90
7388;DHT22;3735;50.136;11.062;2024-02-14T06:53:33;4.00;99.90
7388;DHT22;3735;50.136;11.062;2024-02-14T06:55:58;4.00;99.90
7388;DHT22;3735;50.136;11.062;2024-02-14T06:58:24;4.00;99.90
7388;DHT22;3735;50.136;11.062;2024-02-14T07:00:50;4.10;99.90
7388;DHT22;3735;50.136;11.062;2024-02-14T07:03:16;4.10;99.90
7388;DHT22;3735;50.136;11.062;2024-02-14T07:05:41;4.20;99.90
7388;DHT22;3735;50.136;11.062;2024-02-14T07:08:07;4.20;99.90
7388;DHT22;3735;50.136;11.062;2024-02-14T07:10:33;4.20;99.90
7388;DHT22;3735;50.136;11.062;2024-02-14T07:12:59;4.20;99.90
7388;DHT22;3735;50.136;11.062;2024-02-14T07:15:25;4.30;99.90
7388;DHT22;3735;50.136;11.062;2024-02-14T07:17:54;4.40;99.90
7388;DHT22;3735;50.136;11.062;2024-02-14T07:20:21;4.40;99.90
7388;DHT22;3735;50.136;11.062;2024-02-14T07:22:47;4.50;99.90
7388;DHT22;3735;50.136;11.062;2024-02-14T07:25:21;4.70;99.90
7388;DHT22;3735;50.136;11.062;2024-02-14T07:27:48;4.80;99.90
7388;DHT22;3735;50.136;11.062;2024-02-14T07:30:15;4.90;99.90
7388;DHT22;3735;50.136;11.062;2024-02-14T07:32:43;5.00;99.90
7388;DHT22;3735;50.136;11.062;2024-02-14T07:35:10;5.10;99.90
7388;DHT22;3735;50.136;11.062;2024-02-14T07:37:36;5.20;99.90
7388;DHT22;3735;50.136;11.062;2024-02-14T07:40:03;5.20;99.90
7388;DHT22;3735;50.136;11.062;2024-02-14T07:42:29;5.20;99.90
7388;DHT22;3735;50.136;11.062;2024-02-14T07:44:55;5.20;99.90
7388;DHT22;3735;50.136;11.062;2024-02-14T07:47:21;5.20;99.90
7388;DHT22;3735;50.136;11.062;2024-02-14T07:49:47;5.30;99.90
7388;DHT22;3735;50.136;11.062;2024-02-14T07:52:13;5.40;99.90
7388;DHT22;3735;50.136;11.062;2024-02-14T07:54:39;5.50;99.90
7388;DHT22;3735;50.136;11.062;2024-02-14T07:57:05;5.60;99.90
7388;DHT22;3735;50.136;11.062;2024-02-14T07:59:31;5.70;99.90
7388;DHT22;3735;50.136;11.062;2024-02-14T08:01:56;5.80;99.90
7388;DHT22;3735;50.136;11.062;2024-02-14T08:04:22;5.80;99.90
7388;DHT22;3735;50.136;11.062;2024-02-14T08:06:48;5.80;99.90
7388;DHT22;3735;50.136;11.062;2024-02-14T08:09:14;5.90;99.90
7388;DHT22;3735;50.136;11.062;2024-02-14T08:11:41;5.90;99.90
7388;DHT22;3735;50.136;11.062;2024-02-14T08:14:07;6.00;99.90
7388;DHT22;3735;50.136;11.062;2024-02-14T08:16:32;6.00;99.90
7388;DHT22;3735;50.136;11.062;2024-02-14T08:18:58;6.10;99.90
7388;DHT22;3735;50.136;11.062;2024-02-14T08:21:28;6.20;99.90
7388;DHT22;3735;50.136;11.062;2024-02-14T08:23:54;6.20;99.90
7388;DHT22;3735;50.136;11.062;2024-02-14T08:26:21;6.20;99.90
7388;DHT22;3735;50.136;11.062;2024-02-14T08:28:48;6.10;99.90
7388;DHT22;3735;50.136;11.062;2024-02-14T08:31:14;6.00;99.90
7388;DHT22;3735;50.136;11.062;2024-02-14T08:33:41;5.90;99.90
7388;DHT22;3735;50.136;11.062;2024-02-14T08:36:07;5.80;99.90
7388;DHT22;3735;50.136;11.062;2024-02-14T08:38:33;5.70;99.90
7388;DHT22;3735;50.136;11.062;2024-02-14T08:41:01;5.60;99.90
7388;DHT22;3735;50.136;11.062;2024-02-14T08:43:28;5.60;99.90
7388;DHT22;3735;50.136;11.062;2024-02-14T08:45:54;5.50;99.90
7388;DHT22;3735;50.136;11.062;2024-02-14T08:48:21;5.60;99.90
7388;DHT22;3735;50.136;11.062;2024-02-14T08:50:47;5.60;99.90
7388;DHT22;3735;50.136;11.062;2024-02-14T08:53:13;5.70;99.90
7388;DHT22;3735;50.136;11.062;2024-02-14T08:55:40;5.80;99.90
7388;DHT22;3735;50.136;11.062;2024-02-14T08:58:06;5.90;99.90
7388;DHT22;3735;50.136;11.062;2024-02-14T09:00:32;6.00;99.90
7388;DHT22;3735;50.136;11.062;2024-02-14T09:03:00;5.90;99.90
7388;DHT22;3735;50.136;11.062;2024-02-14T09:05:26;6.00;99.90
7388;DHT22;3735;50.136;11.062;2024-02-14T09:07:53;6.00;99.90
7388;DHT22;3735;50.136;11.062;2024-02-14T09:10:20;6.00;99.90
7388;DHT22;3735;50.136;11.062;2024-02-14T09:12:46;6.00;99.90
7388;DHT22;3735;50.136;11.062;2024-02-14T09:15:12;6.00;99.90
7388;DHT22;3735;50.136;11.062;2024-02-14T09:17:38;6.10;99.90
7388;DHT22;3735;50.136;11.062;2024-02-14T09:20:06;6.10;99.90
7388;DHT22;3735;50.136;11.062;2024-02-14T09:22:36;6.10;99.90
7388;DHT22;3735;50.136;11.062;2024-02-14T09:25:02;6.20;99.90
7388;DHT22;3735;50.136;11.062;2024-02-14T09:27:32;6.20;99.90
7388;DHT22;3735;50.136;11.062;2024-02-14T09:29:58;6.20;99.90
7388;DHT22;3735;50.136;11.062;2024-02-14T09:32:25;6.30;99.90
7388;DHT22;3735;50.136;11.062;2024-02-14T09:34:50;6.20;99.90
7388;DHT22;3735;50.136;11.062;2024-02-14T09:37:16;6.20;99.90
7388;DHT22;3735;50.136;11.062;2024-02-14T09:39:42;6.30;99.90
7388;DHT22;3735;50.136;11.062;2024-02-14T09:42:13;6.30;99.90
7388;DHT22;3735;50.136;11.062;2024-02-14T09:44:41;6.50;99.90
7388;DHT22;3735;50.136;11.062;2024-02-14T09:47:09;6.70;99.90
7388;DHT22;3735;50.136;11.062;2024-02-14T09:49:35;7.00;99.90
7388;DHT22;3735;50.136;11.062;2024-02-14T09:52:02;7.20;99.90
7388;DHT22;3735;50.136;11.062;2024-02-14T09:54:29;7.40;99.90
7388;DHT22;3735;50.136;11.062;2024-02-14T09:56:58;7.60;99.90
7388;DHT22;3735;50.136;11.062;2024-02-14T09:59:25;7.40;99.90
7388;DHT22;3735;50.136;11.062;2024-02-14T10:01:51;7.30;99.90
7388;DHT22;3735;50.136;11.062;2024-02-14T10:04:18;7.30;99.90
7388;DHT22;3735;50.136;11.062;2024-02-14T10:06:45;7.40;99.90
7388;DHT22;3735;50.136;11.062;2024-02-14T10:09:11;7.50;99.90
7388;DHT22;3735;50.136;11.062;2024-02-14T10:11:37;7.60;99.90
7388;DHT22;3735;50.136;11.062;2024-02-14T10:14:05;7.80;99.90
7388;DHT22;3735;50.136;11.062;2024-02-14T10:16:35;8.00;99.90
7388;DHT22;3735;50.136;11.062;2024-02-14T10:19:01;8.30;99.90
7388;DHT22;3735;50.136;11.062;2024-02-14T10:21:28;8.50;99.90
7388;DHT22;3735;50.136;11.062;2024-02-14T10:23:54;8.70;99.90
7388;DHT22;3735;50.136;11.062;2024-02-14T10:26:23;8.90;99.90
7388;DHT22;3735;50.136;11.062;2024-02-14T10:28:49;9.20;99.90
7388;DHT22;3735;50.136;11.062;2024-02-14T10:31:17;9.30;99.90
7388;DHT22;3735;50.136;11.062;2024-02-14T10:33:43;9.40;99.90
7388;DHT22;3735;50.136;11.062;2024-02-14T10:36:12;9.60;99.90
7388;DHT22;3735;50.136;11.062;2024-02-14T10:38:39;9.90;99.90
7388;DHT22;3735;50.136;11.062;2024-02-14T10:41:06;9.80;99.90
7388;DHT22;3735;50.136;11.062;2024-02-14T10:43:32;9.80;99.90
7388;DHT22;3735;50.136;11.062;2024-02-14T10:46:18;9.70;99.90
7388;DHT22;3735;50.136;11.062;2024-02-14T10:48:47;9.70;99.90
7388;DHT22;3735;50.136;11.062;2024-02-14T10:51:15;9.60;99.90
7388;DHT22;3735;50.136;11.062;2024-02-14T10:53:44;9.50;99.90
7388;DHT22;3735;50.136;11.062;2024-02-14T10:56:17;9.50;99.90
7388;DHT22;3735;50.136;11.062;2024-02-14T10:58:47;9.40;99.90
7388;DHT22;3735;50.136;11.062;2024-02-14T11:01:14;9.30;99.90
7388;DHT22;3735;50.136;11.062;2024-02-14T11:03:45;9.20;99.90
7388;DHT22;3735;50.136;11.062;2024-02-14T11:06:16;9.20;99.90
7388;DHT22;3735;50.136;11.062;2024-02-14T11:09:03;9.20;99.90
7388;DHT22;3735;50.136;11.062;2024-02-14T11:11:35;9.30;99.90
7388;DHT22;3735;50.136;11.062;2024-02-14T11:14:02;9.40;99.90
7388;DHT22;3735;50.136;11.062;2024-02-14T11:16:39;9.30;99.90
7388;DHT22;3735;50.136;11.062;2024-02-14T11:19:11;9.20;99.90
7388;DHT22;3735;50.136;11.062;2024-02-14T11:21:42;9.20;99.90
7388;DHT22;3735;50.136;11.062;2024-02-14T11:24:12;9.20;99.90
7388;DHT22;3735;50.136;11.062;2024-02-14T11:26:49;9.30;99.90
7388;DHT22;3735;50.136;11.062;2024-02-14T11:29:20;9.40;99.90
7388;DHT22;3735;50.136;11.062;2024-02-14T11:31:46;9.60;99.90
7388;DHT22;3735;50.136;11.062;2024-02-14T11:34:16;9.90;99.90
7388;DHT22;3735;50.136;11.062;2024-02-14T11:36:43;9.90;99.90
7388;DHT22;3735;50.136;11.062;2024-02-14T11:39:13;10.10;99.90
7388;DHT22;3735;50.136;11.062;2024-02-14T11:41:39;10.20;99.90
7388;DHT22;3735;50.136;11.062;2024-02-14T11:44:08;10.30;99.90
7388;DHT22;3735;50.136;11.062;2024-02-14T11:46:35;10.40;99.90
7388;DHT22;3735;50.136;11.062;2024-02-14T11:49:03;10.80;99.90
7388;DHT22;3735;50.136;11.062;2024-02-14T11:51:33;11.50;99.90
7388;DHT22;3735;50.136;11.062;2024-02-14T11:54:01;12.20;99.90
7388;DHT22;3735;50.136;11.062;2024-02-14T11:56:36;12.50;99.90
7388;DHT22;3735;50.136;11.062;2024-02-14T11:59:07;12.50;99.90
7388;DHT22;3735;50.136;11.062;2024-02-14T12:01:34;12.30;99.90
7388;DHT22;3735;50.136;11.062;2024-02-14T12:04:02;12.30;99.90
7388;DHT22;3735;50.136;11.062;2024-02-14T12:06:31;12.10;99.90
7388;DHT22;3735;50.136;11.062;2024-02-14T12:09:03;12.00;99.90
7388;DHT22;3735;50.136;11.062;2024-02-14T12:11:33;11.70;99.90
7388;DHT22;3735;50.136;11.062;2024-02-14T12:14:05;11.30;99.90
7388;DHT22;3735;50.136;11.062;2024-02-14T12:16:34;11.00;99.90
7388;DHT22;3735;50.136;11.062;2024-02-14T12:21:39;10.50;99.90
7388;DHT22;3735;50.136;11.062;2024-02-14T12:24:07;10.40;99.90
7388;DHT22;3735;50.136;11.062;2024-02-14T12:26:38;10.40;99.90
7388;DHT22;3735;50.136;11.062;2024-02-14T12:29:04;10.40;99.90
7388;DHT22;3735;50.136;11.062;2024-02-14T12:31:33;10.60;99.90
7388;DHT22;3735;50.136;11.062;2024-02-14T12:34:00;10.50;99.90
7388;DHT22;3735;50.136;11.062;2024-02-14T12:36:33;10.40;99.90
7388;DHT22;3735;50.136;11.062;2024-02-14T12:39:03;10.50;99.90
7388;DHT22;3735;50.136;11.062;2024-02-14T12:41:30;10.40;99.90
7388;DHT22;3735;50.136;11.062;2024-02-14T12:43:57;10.30;99.90
7388;DHT22;3735;50.136;11.062;2024-02-14T12:46:23;10.30;99.90
7388;DHT22;3735;50.136;11.062;2024-02-14T12:48:49;10.30;99.90
7388;DHT22;3735;50.136;11.062;2024-02-14T12:51:15;10.20;99.90
7388;DHT22;3735;50.136;11.062;2024-02-14T12:53:41;10.10;99.90
7388;DHT22;3735;50.136;11.062;2024-02-14T12:56:10;10.00;99.90
7388;DHT22;3735;50.136;11.062;2024-02-14T12:58:36;9.90;99.90
7388;DHT22;3735;50.136;11.062;2024-02-14T13:01:02;9.80;99.90
7388;DHT22;3735;50.136;11.062;2024-02-14T13:03:32;9.60;99.90
7388;DHT22;3735;50.136;11.062;2024-02-14T13:05:59;9.50;99.90
7388;DHT22;3735;50.136;11.062;2024-02-14T13:08:25;9.50;99.90
7388;DHT22;3735;50.136;11.062;2024-02-14T13:10:52;9.60;99.90
7388;DHT22;3735;50.136;11.062;2024-02-14T13:13:18;9.70;99.90
7388;DHT22;3735;50.136;11.062;2024-02-14T13:15:44;9.80;99.90
7388;DHT22;3735;50.136;11.062;2024-02-14T13:18:10;10.10;99.90
7388;DHT22;3735;50.136;11.062;2024-02-14T13:20:36;10.20;99.90
7388;DHT22;3735;50.136;11.062;2024-02-14T13:23:03;10.30;99.90
7388;DHT22;3735;50.136;11.062;2024-02-14T13:25:29;10.40;99.90
7388;DHT22;3735;50.136;11.062;2024-02-14T13:27:55;10.60;99.90
7388;DHT22;3735;50.136;11.062;2024-02-14T13:30:21;10.80;99.90
7388;DHT22;3735;50.136;11.062;2024-02-14T13:32:48;11.00;99.90
7388;DHT22;3735;50.136;11.062;2024-02-14T13:35:14;11.70;99.90
7388;DHT22;3735;50.136;11.062;2024-02-14T13:37:40;12.20;99.90
7388;DHT22;3735;50.136;11.062;2024-02-14T13:40:06;12.10;99.90
7388;DHT22;3735;50.136;11.062;2024-02-14T13:42:36;11.90;99.90
7388;DHT22;3735;50.136;11.062;2024-02-14T13:45:06;11.60;99.90
7388;DHT22;3735;50.136;11.062;2024-02-14T13:47:37;11.30;99.90
7388;DHT22;3735;50.136;11.062;2024-02-14T13:50:08;11.00;99.90
7388;DHT22;3735;50.136;11.062;2024-02-14T13:52:35;10.70;99.90
7388;DHT22;3735;50.136;11.062;2024-02-14T13:55:02;10.50;99.90
7388;DHT22;3735;50.136;11.062;2024-02-14T13:57:39;10.30;99.90
7388;DHT22;3735;50.136;11.062;2024-02-14T14:00:07;10.20;99.90
7388;DHT22;3735;50.136;11.062;2024-02-14T14:02:37;10.10;99.90
7388;DHT22;3735;50.136;11.062;2024-02-14T14:05:07;10.00;99.90
7388;DHT22;3735;50.136;11.062;2024-02-14T14:07:39;9.90;99.90
7388;DHT22;3735;50.136;11.062;2024-02-14T14:10:08;9.80;99.90
7388;DHT22;3735;50.136;11.062;2024-02-14T14:12:37;9.70;99.90
7388;DHT22;3735;50.136;11.062;2024-02-14T14:15:05;9.70;99.90
7388;DHT22;3735;50.136;11.062;2024-02-14T14:17:31;9.70;99.90
7388;DHT22;3735;50.136;11.062;2024-02-14T14:19:57;9.80;99.90
7388;DHT22;3735;50.136;11.062;2024-02-14T14:22:23;9.90;99.90
7388;DHT22;3735;50.136;11.062;2024-02-14T14:24:48;10.00;99.90
7388;DHT22;3735;50.136;11.062;2024-02-14T14:27:14;10.10;99.90
7388;DHT22;3735;50.136;11.062;2024-02-14T14:29:41;10.10;99.90
7388;DHT22;3735;50.136;11.062;2024-02-14T14:32:08;10.00;99.90
7388;DHT22;3735;50.136;11.062;2024-02-14T14:34:34;10.00;99.90
7388;DHT22;3735;50.136;11.062;2024-02-14T14:37:00;10.00;99.90
7388;DHT22;3735;50.136;11.062;2024-02-14T14:39:26;10.00;99.90
7388;DHT22;3735;50.136;11.062;2024-02-14T14:41:52;10.00;99.90
7388;DHT22;3735;50.136;11.062;2024-02-14T14:44:24;10.00;99.90
7388;DHT22;3735;50.136;11.062;2024-02-14T14:46:50;10.00;99.90
7388;DHT22;3735;50.136;11.062;2024-02-14T14:49:16;10.00;99.90
7388;DHT22;3735;50.136;11.062;2024-02-14T14:51:42;10.00;99.90
7388;DHT22;3735;50.136;11.062;2024-02-14T14:54:09;9.90;99.90
7388;DHT22;3735;50.136;11.062;2024-02-14T14:56:34;9.80;99.90
7388;DHT22;3735;50.136;11.062;2024-02-14T14:59:00;9.70;99.90
7388;DHT22;3735;50.136;11.062;2024-02-14T15:01:32;9.70;99.90
7388;DHT22;3735;50.136;11.062;2024-02-14T15:04:02;9.60;99.90
7388;DHT22;3735;50.136;11.062;2024-02-14T15:06:28;9.50;99.90
7388;DHT22;3735;50.136;11.062;2024-02-14T15:08:54;9.50;99.90
7388;DHT22;3735;50.136;11.062;2024-02-14T15:11:19;9.50;99.90
7388;DHT22;3735;50.136;11.062;2024-02-14T15:13:46;9.50;99.90
7388;DHT22;3735;50.136;11.062;2024-02-14T15:16:13;9.50;99.90
7388;DHT22;3735;50.136;11.062;2024-02-14T15:18:40;9.40;99.90
7388;DHT22;3735;50.136;11.062;2024-02-14T15:21:08;9.40;99.90
7388;DHT22;3735;50.136;11.062;2024-02-14T15:23:35;9.40;99.90
7388;DHT22;3735;50.136;11.062;2024-02-14T15:26:00;9.40;99.90
7388;DHT22;3735;50.136;11.062;2024-02-14T15:28:32;9.40;99.90
7388;DHT22;3735;50.136;11.062;2024-02-14T15:31:08;9.40;99.90
7388;DHT22;3735;50.136;11.062;2024-02-14T15:33:53;9.50;99.90
7388;DHT22;3735;50.136;11.062;2024-02-14T15:36:21;9.50;99.90
7388;DHT22;3735;50.136;11.062;2024-02-14T15:38:47;9.50;99.90
7388;DHT22;3735;50.136;11.062;2024-02-14T15:41:13;9.40;99.90
7388;DHT22;3735;50.136;11.062;2024-02-14T15:43:40;9.40;99.90
7388;DHT22;3735;50.136;11.062;2024-02-14T15:46:11;9.40;99.90
7388;DHT22;3735;50.136;11.062;2024-02-14T15:48:37;9.40;99.90
7388;DHT22;3735;50.136;11.062;2024-02-14T15:51:05;9.30;99.90
7388;DHT22;3735;50.136;11.062;2024-02-14T15:53:31;9.30;99.90
7388;DHT22;3735;50.136;11.062;2024-02-14T15:55:57;9.30;99.90
7388;DHT22;3735;50.136;11.062;2024-02-14T15:58:25;9.30;99.90
7388;DHT22;3735;50.136;11.062;2024-02-14T16:00:51;9.30;99.90